<?xml version="1.0" encoding="UTF-8" standalone="no" ?>
<gpx xmlns="http://www.topografix.com/GPX/1/1" xmlns:xsi="http://www.w3.org/2001/XMLSchema-instance" xsi:schemaLocation="http://www.topografix.com/GPX/1/1 http://www.topografix.com/GPX/1/1/gpx.xsd" version="1.1" creator="VisuGPX - https://www.visugpx.com">
  <metadata>
    <name>Blis et Born 7km</name>
  </metadata>
  <trk>
    <name><![CDATA[Blis et Born 7km_1]]></name>
    <trkseg>
      <trkpt lat="45.1818" lon="0.90795">
        <ele>210.7</ele>
      </trkpt>
      <trkpt lat="45.18185" lon="0.90761">
        <ele>210.6</ele>
      </trkpt>
      <trkpt lat="45.18149" lon="0.90747">
        <ele>207.5</ele>
        <time>2011-02-17T09:44:41Z</time>
      </trkpt>
      <trkpt lat="45.18132" lon="0.90745">
        <ele>207.9</ele>
        <time>2011-02-17T09:44:25Z</time>
      </trkpt>
      <trkpt lat="45.1811" lon="0.90753">
        <ele>208.3</ele>
        <time>2011-02-17T09:44:05Z</time>
      </trkpt>
      <trkpt lat="45.18093" lon="0.90762">
        <ele>208.5</ele>
        <time>2011-02-17T09:43:48Z</time>
      </trkpt>
      <trkpt lat="45.18074" lon="0.90768">
        <ele>208.6</ele>
        <time>2011-02-17T09:43:29Z</time>
      </trkpt>
      <trkpt lat="45.1807" lon="0.9079">
        <ele>208.3</ele>
        <time>2011-02-17T09:43:13Z</time>
      </trkpt>
      <trkpt lat="45.18074" lon="0.90962">
        <ele>201.1</ele>
        <time>2011-02-17T09:40:57Z</time>
      </trkpt>
      <trkpt lat="45.18087" lon="0.91016">
        <ele>205.2</ele>
        <time>2011-02-17T09:40:18Z</time>
      </trkpt>
      <trkpt lat="45.18086" lon="0.91079">
        <ele>208.1</ele>
        <time>2011-02-17T09:39:39Z</time>
      </trkpt>
      <trkpt lat="45.18071" lon="0.9111">
        <ele>207.8</ele>
        <time>2011-02-17T09:39:13Z</time>
      </trkpt>
      <trkpt lat="45.18056" lon="0.91166">
        <ele>209.8</ele>
        <time>2011-02-17T09:38:35Z</time>
      </trkpt>
      <trkpt lat="45.1806" lon="0.91223">
        <ele>212.3</ele>
        <time>2011-02-17T09:37:59Z</time>
      </trkpt>
      <trkpt lat="45.18067" lon="0.91264">
        <ele>213.3</ele>
        <time>2011-02-17T09:37:33Z</time>
      </trkpt>
      <trkpt lat="45.18078" lon="0.91385">
        <ele>214.5</ele>
        <time>2011-02-17T09:36:13Z</time>
      </trkpt>
      <trkpt lat="45.1809" lon="0.91493">
        <ele>215.5</ele>
        <time>2011-02-17T09:35:02Z</time>
      </trkpt>
      <trkpt lat="45.18109" lon="0.91534">
        <ele>216.5</ele>
        <time>2011-02-17T09:34:31Z</time>
      </trkpt>
      <trkpt lat="45.18123" lon="0.91536">
        <ele>217.5</ele>
        <time>2011-02-17T09:34:18Z</time>
      </trkpt>
      <trkpt lat="45.18137" lon="0.91518">
        <ele>218.9</ele>
        <time>2011-02-17T09:34:01Z</time>
      </trkpt>
      <trkpt lat="45.18156" lon="0.91497">
        <ele>219.6</ele>
        <time>2011-02-17T09:33:40Z</time>
      </trkpt>
      <trkpt lat="45.18171" lon="0.91459">
        <ele>220.6</ele>
        <time>2011-02-17T09:33:12Z</time>
      </trkpt>
      <trkpt lat="45.18192" lon="0.91516">
        <ele>220.5</ele>
        <time>2011-02-17T09:32:29Z</time>
      </trkpt>
      <trkpt lat="45.18217" lon="0.9155">
        <ele>222.6</ele>
        <time>2011-02-17T09:31:58Z</time>
      </trkpt>
      <trkpt lat="45.18274" lon="0.9163">
        <ele>229</ele>
        <time>2011-02-17T09:30:44Z</time>
      </trkpt>
      <trkpt lat="45.18295" lon="0.91666">
        <ele>230.6</ele>
        <time>2011-02-17T09:30:15Z</time>
      </trkpt>
      <trkpt lat="45.18302" lon="0.9171">
        <ele>232.4</ele>
        <time>2011-02-17T09:29:47Z</time>
      </trkpt>
      <trkpt lat="45.18333" lon="0.91751">
        <ele>234.7</ele>
        <time>2011-02-17T09:29:10Z</time>
      </trkpt>
      <trkpt lat="45.18419" lon="0.91827">
        <ele>238.2</ele>
      </trkpt>
      <trkpt lat="45.1842" lon="0.9189">
        <ele>231.4</ele>
        <time>2011-02-17T09:26:31Z</time>
      </trkpt>
      <trkpt lat="45.18445" lon="0.91951">
        <ele>227.2</ele>
        <time>2011-02-17T09:25:30Z</time>
      </trkpt>
      <trkpt lat="45.18452" lon="0.9194">
        <ele>227.5</ele>
        <time>2011-02-17T09:25:20Z</time>
      </trkpt>
      <trkpt lat="45.18481" lon="0.91919">
        <ele>226.9</ele>
        <time>2011-02-17T09:24:48Z</time>
      </trkpt>
      <trkpt lat="45.18582" lon="0.91782">
        <ele>237.6</ele>
      </trkpt>
      <trkpt lat="45.18631" lon="0.9181">
        <ele>221.7</ele>
        <time>2011-02-17T09:20:32Z</time>
      </trkpt>
      <trkpt lat="45.18706" lon="0.91878">
        <ele>208</ele>
        <time>2011-02-17T09:18:15Z</time>
      </trkpt>
      <trkpt lat="45.18747" lon="0.9195">
        <ele>202</ele>
        <time>2011-02-17T09:16:53Z</time>
      </trkpt>
      <trkpt lat="45.18825" lon="0.92004">
        <ele>199.5</ele>
        <time>2011-02-17T09:15:25Z</time>
      </trkpt>
      <trkpt lat="45.18874" lon="0.92084">
        <ele>199.3</ele>
        <time>2011-02-17T09:14:13Z</time>
      </trkpt>
      <trkpt lat="45.18935" lon="0.92169">
        <ele>197</ele>
        <time>2011-02-17T09:12:46Z</time>
      </trkpt>
      <trkpt lat="45.18965" lon="0.92185">
        <ele>195.4</ele>
        <time>2011-02-17T09:12:11Z</time>
      </trkpt>
      <trkpt lat="45.18995" lon="0.9223">
        <ele>194.3</ele>
        <time>2011-02-17T09:11:27Z</time>
      </trkpt>
      <trkpt lat="45.19044" lon="0.92226">
        <ele>190.7</ele>
        <time>2011-02-17T09:10:30Z</time>
      </trkpt>
      <trkpt lat="45.19121" lon="0.92146">
        <ele>186.4</ele>
        <time>2011-02-17T09:08:47Z</time>
      </trkpt>
      <trkpt lat="45.19125" lon="0.92141">
        <ele>186.1</ele>
        <time>2011-02-17T09:08:41Z</time>
      </trkpt>
      <trkpt lat="45.19128" lon="0.92136">
        <ele>186</ele>
        <time>2011-02-17T09:08:37Z</time>
      </trkpt>
      <trkpt lat="45.19072" lon="0.92092">
        <ele>186.4</ele>
        <time>2011-02-17T09:07:37Z</time>
      </trkpt>
      <trkpt lat="45.19033" lon="0.92046">
        <ele>183.7</ele>
        <time>2011-02-17T09:06:41Z</time>
      </trkpt>
      <trkpt lat="45.19023" lon="0.91968">
        <ele>184.4</ele>
        <time>2011-02-17T09:05:50Z</time>
      </trkpt>
      <trkpt lat="45.19043" lon="0.91913">
        <ele>195.7</ele>
      </trkpt>
      <trkpt lat="45.19042" lon="0.91837">
        <ele>191.1</ele>
        <time>2011-02-17T09:02:45Z</time>
      </trkpt>
      <trkpt lat="45.19012" lon="0.91807">
        <ele>194.5</ele>
        <time>2011-02-17T09:02:11Z</time>
      </trkpt>
      <trkpt lat="45.18953" lon="0.91783">
        <ele>199.6</ele>
        <time>2011-02-17T09:01:14Z</time>
      </trkpt>
      <trkpt lat="45.18923" lon="0.91733">
        <ele>202.6</ele>
        <time>2011-02-17T09:00:33Z</time>
      </trkpt>
      <trkpt lat="45.1888" lon="0.91514">
        <ele>221.1</ele>
        <time>2011-02-17T08:55:41Z</time>
      </trkpt>
      <trkpt lat="45.18861" lon="0.91422">
        <ele>225.8</ele>
        <time>2011-02-17T08:54:40Z</time>
      </trkpt>
      <trkpt lat="45.18839" lon="0.91316">
        <ele>227.8</ele>
        <time>2011-02-17T08:53:30Z</time>
      </trkpt>
      <trkpt lat="45.1876" lon="0.91197">
        <ele>225.3</ele>
        <time>2011-02-17T08:51:34Z</time>
      </trkpt>
      <trkpt lat="45.18722" lon="0.91157">
        <ele>224.1</ele>
        <time>2011-02-17T08:50:47Z</time>
      </trkpt>
      <trkpt lat="45.18708" lon="0.91122">
        <ele>223.8</ele>
        <time>2011-02-17T08:50:19Z</time>
      </trkpt>
      <trkpt lat="45.18697" lon="0.9108">
        <ele>224</ele>
        <time>2011-02-17T08:49:50Z</time>
      </trkpt>
      <trkpt lat="45.18672" lon="0.90999">
        <ele>225.7</ele>
        <time>2011-02-17T08:48:53Z</time>
      </trkpt>
      <trkpt lat="45.18728" lon="0.90939">
        <ele>225</ele>
        <time>2011-02-17T08:47:45Z</time>
      </trkpt>
      <trkpt lat="45.18784" lon="0.90891">
        <ele>229.5</ele>
      </trkpt>
      <trkpt lat="45.18797" lon="0.90867">
        <ele>228.8</ele>
      </trkpt>
      <trkpt lat="45.18801" lon="0.90861">
        <ele>228.7</ele>
      </trkpt>
      <trkpt lat="45.18858" lon="0.90699">
        <ele>220.5</ele>
      </trkpt>
      <trkpt lat="45.18875" lon="0.90631">
        <ele>220</ele>
      </trkpt>
      <trkpt lat="45.18878" lon="0.90543">
        <ele>221.9</ele>
      </trkpt>
      <trkpt lat="45.18875" lon="0.90507">
        <ele>223.2</ele>
      </trkpt>
      <trkpt lat="45.18886" lon="0.90439">
        <ele>226</ele>
      </trkpt>
      <trkpt lat="45.18847" lon="0.90379">
        <ele>225.9</ele>
      </trkpt>
      <trkpt lat="45.18842" lon="0.90344">
        <ele>224</ele>
        <time>2011-02-16T09:48:46Z</time>
      </trkpt>
      <trkpt lat="45.18842" lon="0.9035">
        <ele>224</ele>
        <time>2011-02-17T08:39:54Z</time>
      </trkpt>
      <trkpt lat="45.18808" lon="0.90283">
        <ele>226.1</ele>
      </trkpt>
      <trkpt lat="45.18739" lon="0.90199">
        <ele>221.5</ele>
      </trkpt>
      <trkpt lat="45.1867" lon="0.9006">
        <ele>201.7</ele>
        <time>2011-02-17T08:34:28Z</time>
      </trkpt>
      <trkpt lat="45.18669" lon="0.90046">
        <ele>201.1</ele>
        <time>2011-02-17T08:34:18Z</time>
      </trkpt>
      <trkpt lat="45.18651" lon="0.89921">
        <ele>198.1</ele>
        <time>2011-02-17T08:32:44Z</time>
      </trkpt>
      <trkpt lat="45.18633" lon="0.89854">
        <ele>198.5</ele>
        <time>2011-02-17T08:31:57Z</time>
      </trkpt>
      <trkpt lat="45.18628" lon="0.89673">
        <ele>202.2</ele>
      </trkpt>
      <trkpt lat="45.1868" lon="0.89474">
        <ele>207.6</ele>
      </trkpt>
      <trkpt lat="45.18702" lon="0.89415">
        <ele>208.6</ele>
      </trkpt>
      <trkpt lat="45.18734" lon="0.89323">
        <ele>208</ele>
      </trkpt>
      <trkpt lat="45.18687" lon="0.89364">
        <ele>205.2</ele>
        <time>2011-02-17T08:25:36Z</time>
      </trkpt>
      <trkpt lat="45.18632" lon="0.89391">
        <ele>206.9</ele>
        <time>2011-02-17T08:24:44Z</time>
      </trkpt>
      <trkpt lat="45.18597" lon="0.89414">
        <ele>207.3</ele>
        <time>2011-02-17T08:24:08Z</time>
      </trkpt>
      <trkpt lat="45.18527" lon="0.89477">
        <ele>206</ele>
        <time>2011-02-17T08:22:47Z</time>
      </trkpt>
      <trkpt lat="45.18456" lon="0.89501">
        <ele>208</ele>
        <time>2011-02-17T08:21:41Z</time>
      </trkpt>
      <trkpt lat="45.18443" lon="0.89492">
        <ele>209.6</ele>
        <time>2011-02-17T08:21:27Z</time>
      </trkpt>
      <trkpt lat="45.18427" lon="0.89477">
        <ele>211.9</ele>
        <time>2011-02-17T08:21:05Z</time>
      </trkpt>
      <trkpt lat="45.18395" lon="0.89459">
        <ele>215.1</ele>
        <time>2011-02-17T08:20:32Z</time>
      </trkpt>
      <trkpt lat="45.18385" lon="0.89465">
        <ele>215.6</ele>
        <time>2011-02-17T08:20:23Z</time>
      </trkpt>
      <trkpt lat="45.18363" lon="0.89499">
        <ele>215.2</ele>
        <time>2011-02-17T08:19:50Z</time>
      </trkpt>
      <trkpt lat="45.18351" lon="0.89519">
        <ele>215.2</ele>
        <time>2011-02-17T08:19:33Z</time>
      </trkpt>
      <trkpt lat="45.18325" lon="0.89572">
        <ele>214.1</ele>
        <time>2011-02-17T08:18:47Z</time>
      </trkpt>
      <trkpt lat="45.18323" lon="0.89589">
        <ele>213.5</ele>
        <time>2011-02-17T08:18:34Z</time>
      </trkpt>
      <trkpt lat="45.18323" lon="0.89707">
        <ele>209.5</ele>
        <time>2011-02-17T08:17:04Z</time>
      </trkpt>
      <trkpt lat="45.18329" lon="0.8972">
        <ele>209.6</ele>
        <time>2011-02-17T08:16:54Z</time>
      </trkpt>
      <trkpt lat="45.18346" lon="0.89753">
        <ele>217.5</ele>
      </trkpt>
      <trkpt lat="45.18329" lon="0.89774">
        <ele>214.5</ele>
      </trkpt>
      <trkpt lat="45.18299" lon="0.89864">
        <ele>203.7</ele>
      </trkpt>
      <trkpt lat="45.18338" lon="0.89979">
        <ele>199.6</ele>
      </trkpt>
      <trkpt lat="45.18373" lon="0.90108">
        <ele>187.8</ele>
      </trkpt>
      <trkpt lat="45.18417" lon="0.90261">
        <ele>171.9</ele>
        <time>2011-02-17T08:08:23Z</time>
      </trkpt>
      <trkpt lat="45.18417" lon="0.90285">
        <ele>169.7</ele>
        <time>2011-02-17T08:07:59Z</time>
      </trkpt>
      <trkpt lat="45.18422" lon="0.90345">
        <ele>172</ele>
        <time>2011-02-17T08:07:22Z</time>
      </trkpt>
      <trkpt lat="45.18393" lon="0.90381">
        <ele>178.9</ele>
        <time>2011-02-17T08:06:26Z</time>
      </trkpt>
      <trkpt lat="45.18401" lon="0.90416">
        <ele>182</ele>
        <time>2011-02-17T08:05:58Z</time>
      </trkpt>
      <trkpt lat="45.18393" lon="0.90456">
        <ele>183.8</ele>
        <time>2011-02-17T08:05:32Z</time>
      </trkpt>
      <trkpt lat="45.18367" lon="0.90487">
        <ele>187.8</ele>
        <time>2011-02-17T08:04:54Z</time>
      </trkpt>
      <trkpt lat="45.18299" lon="0.90556">
        <ele>195.1</ele>
        <time>2011-02-17T08:03:36Z</time>
      </trkpt>
      <trkpt lat="45.18278" lon="0.90601">
        <ele>196</ele>
        <time>2011-02-17T08:03:02Z</time>
      </trkpt>
      <trkpt lat="45.18258" lon="0.90679">
        <ele>199.3</ele>
        <time>2011-02-17T08:02:10Z</time>
      </trkpt>
      <trkpt lat="45.1826" lon="0.90772">
        <ele>205.5</ele>
        <time>2011-02-17T08:01:08Z</time>
      </trkpt>
      <trkpt lat="45.18257" lon="0.90779">
        <ele>210</ele>
      </trkpt>
      <trkpt lat="45.18198" lon="0.90765">
        <ele>210.4</ele>
      </trkpt>
    </trkseg>
  </trk>
</gpx>